sensor_id;sensor_type;location;lat;lon;timestamp;pressure;altitude;pressure_sealevel;temperature;humidity
57234;BME280;43090;52.604;13.318;2023-08-30T00:01:11;100260.50;;;15.76;100.00
57234;BME280;43090;52.604;13.318;2023-08-30T00:03:38;100223.75;;;15.57;100.00
57234;BME280;43090;52.604;13.318;2023-08-30T00:06:05;100242.75;;;15.74;100.00
57234;BME280;43090;52.604;13.318;2023-08-30T00:08:32;100234.81;;;15.54;100.00
57234;BME280;43090;52.604;13.318;2023-08-30T00:10:59;100235.50;;;15.38;100.00
57234;BME280;43090;52.604;13.318;2023-08-30T00:13:26;100236.13;;;15.50;100.00
57234;BME280;43090;52.604;13.318;2023-08-30T00:15:53;100232.13;;;15.72;100.00
57234;BME280;43090;52.604;13.318;2023-08-30T00:18:19;100237.38;;;15.74;100.00
57234;BME280;43090;52.604;13.318;2023-08-30T00:20:46;100228.50;;;15.63;100.00
57234;BME280;43090;52.604;13.318;2023-08-30T00:23:12;100238.38;;;15.73;100.00
57234;BME280;43090;52.604;13.318;2023-08-30T00:25:39;100224.47;;;15.68;100.00
57234;BME280;43090;52.604;13.318;2023-08-30T00:28:05;100227.81;;;15.43;100.00
57234;BME280;43090;52.604;13.318;2023-08-30T00:30:33;100230.97;;;15.39;100.00
57234;BME280;43090;52.604;13.318;2023-08-30T00:33:00;100230.66;;;15.42;100.00
57234;BME280;43090;52.604;13.318;2023-08-30T00:35:26;100224.84;;;15.19;100.00
57234;BME280;43090;52.604;13.318;2023-08-30T00:37:53;100233.75;;;15.47;100.00
57234;BME280;43090;52.604;13.318;2023-08-30T00:40:23;100219.41;;;15.28;100.00
57234;BME280;43090;52.604;13.318;2023-08-30T00:42:51;100225.00;;;15.17;100.00
57234;BME280;43090;52.604;13.318;2023-08-30T00:45:17;100233.56;;;15.30;100.00
57234;BME280;43090;52.604;13.318;2023-08-30T00:47:44;100228.16;;;15.12;100.00
57234;BME280;43090;52.604;13.318;2023-08-30T00:50:11;100221.06;;;15.11;100.00
57234;BME280;43090;52.604;13.318;2023-08-30T00:52:37;100214.97;;;15.09;100.00
57234;BME280;43090;52.604;13.318;2023-08-30T00:55:05;100218.50;;;15.38;100.00
57234;BME280;43090;52.604;13.318;2023-08-30T00:57:32;100214.47;;;15.42;100.00
57234;BME280;43090;52.604;13.318;2023-08-30T00:59:58;100221.41;;;15.44;100.00
57234;BME280;43090;52.604;13.318;2023-08-30T01:02:25;100222.09;;;15.46;100.00
57234;BME280;43090;52.604;13.318;2023-08-30T01:04:52;100230.91;;;15.48;100.00
57234;BME280;43090;52.604;13.318;2023-08-30T01:07:18;100232.59;;;15.49;100.00
57234;BME280;43090;52.604;13.318;2023-08-30T01:09:45;100229.91;;;15.49;100.00
57234;BME280;43090;52.604;13.318;2023-08-30T01:12:22;100222.34;;;15.35;100.00
57234;BME280;43090;52.604;13.318;2023-08-30T01:14:59;100226.81;;;15.44;100.00
57234;BME280;43090;52.604;13.318;2023-08-30T01:17:27;100235.28;;;15.49;100.00
57234;BME280;43090;52.604;13.318;2023-08-30T01:20:01;100239.94;;;15.57;100.00
57234;BME280;43090;52.604;13.318;2023-08-30T01:25:43;100230.47;;;15.07;100.00
57234;BME280;43090;52.604;13.318;2023-08-30T01:28:11;100232.56;;;15.31;100.00
57234;BME280;43090;52.604;13.318;2023-08-30T01:30:41;100235.59;;;15.28;100.00
57234;BME280;43090;52.604;13.318;2023-08-30T01:33:10;100246.06;;;15.31;100.00
57234;BME280;43090;52.604;13.318;2023-08-30T01:35:38;100253.25;;;15.41;100.00
57234;BME280;43090;52.604;13.318;2023-08-30T01:38:07;100244.59;;;15.37;100.00
57234;BME280;43090;52.604;13.318;2023-08-30T01:40:37;100255.16;;;15.30;100.00
57234;BME280;43090;52.604;13.318;2023-08-30T01:43:06;100253.56;;;15.38;100.00
57234;BME280;43090;52.604;13.318;2023-08-30T01:45:35;100245.38;;;15.29;100.00
57234;BME280;43090;52.604;13.318;2023-08-30T01:48:03;100260.69;;;15.29;100.00
57234;BME280;43090;52.604;13.318;2023-08-30T01:50:32;100244.75;;;15.18;100.00
57234;BME280;43090;52.604;13.318;2023-08-30T01:52:59;100248.53;;;15.25;100.00
57234;BME280;43090;52.604;13.318;2023-08-30T01:55:28;100247.06;;;15.30;100.00
57234;BME280;43090;52.604;13.318;2023-08-30T01:57:56;100244.66;;;15.27;100.00
57234;BME280;43090;52.604;13.318;2023-08-30T02:00:22;100256.97;;;15.12;100.00
57234;BME280;43090;52.604;13.318;2023-08-30T02:02:49;100261.00;;;15.26;100.00
57234;BME280;43090;52.604;13.318;2023-08-30T02:05:15;100258.66;;;15.13;100.00
57234;BME280;43090;52.604;13.318;2023-08-30T02:07:55;100248.13;;;15.20;100.00
57234;BME280;43090;52.604;13.318;2023-08-30T02:10:26;100257.31;;;15.27;100.00
57234;BME280;43090;52.604;13.318;2023-08-30T02:12:55;100246.53;;;15.27;100.00
57234;BME280;43090;52.604;13.318;2023-08-30T02:15:24;100230.34;;;15.27;100.00
57234;BME280;43090;52.604;13.318;2023-08-30T02:17:52;100238.84;;;15.32;100.00
57234;BME280;43090;52.604;13.318;2023-08-30T02:20:19;100239.19;;;15.37;100.00
57234;BME280;43090;52.604;13.318;2023-08-30T02:22:46;100229.56;;;15.35;100.00
57234;BME280;43090;52.604;13.318;2023-08-30T02:25:13;100232.03;;;15.28;100.00
57234;BME280;43090;52.604;13.318;2023-08-30T02:27:39;100246.06;;;15.31;100.00
57234;BME280;43090;52.604;13.318;2023-08-30T02:30:07;100238.00;;;15.04;100.00
57234;BME280;43090;52.604;13.318;2023-08-30T02:46:56;100241.75;;;13.88;100.00
57234;BME280;43090;52.604;13.318;2023-08-30T02:49:23;100253.41;;;14.36;100.00
57234;BME280;43090;52.604;13.318;2023-08-30T02:51:50;100231.56;;;14.39;100.00
57234;BME280;43090;52.604;13.318;2023-08-30T02:54:16;100228.00;;;14.48;100.00
57234;BME280;43090;52.604;13.318;2023-08-30T02:56:44;100239.03;;;14.55;100.00
57234;BME280;43090;52.604;13.318;2023-08-30T02:59:11;100243.16;;;14.49;100.00
57234;BME280;43090;52.604;13.318;2023-08-30T03:01:38;100251.00;;;14.43;100.00
57234;BME280;43090;52.604;13.318;2023-08-30T03:04:05;100230.94;;;14.55;100.00
57234;BME280;43090;52.604;13.318;2023-08-30T03:06:33;100220.38;;;14.44;100.00
57234;BME280;43090;52.604;13.318;2023-08-30T03:09:00;100228.13;;;14.66;100.00
57234;BME280;43090;52.604;13.318;2023-08-30T03:11:27;100213.53;;;14.59;100.00
57234;BME280;43090;52.604;13.318;2023-08-30T03:13:54;100208.09;;;14.69;100.00
57234;BME280;43090;52.604;13.318;2023-08-30T03:16:20;100195.50;;;14.60;100.00
57234;BME280;43090;52.604;13.318;2023-08-30T03:18:47;100195.44;;;14.79;100.00
57234;BME280;43090;52.604;13.318;2023-08-30T03:21:14;100199.88;;;14.71;100.00
57234;BME280;43090;52.604;13.318;2023-08-30T03:23:41;100221.16;;;14.74;100.00
57234;BME280;43090;52.604;13.318;2023-08-30T03:26:12;100218.16;;;14.77;100.00
57234;BME280;43090;52.604;13.318;2023-08-30T03:28:39;100216.59;;;14.74;100.00
57234;BME280;43090;52.604;13.318;2023-08-30T03:31:17;100203.28;;;14.63;100.00
57234;BME280;43090;52.604;13.318;2023-08-30T03:33:45;100207.97;;;14.61;100.00
57234;BME280;43090;52.604;13.318;2023-08-30T03:36:13;100200.88;;;14.60;100.00
57234;BME280;43090;52.604;13.318;2023-08-30T03:38:40;100213.66;;;14.68;100.00
57234;BME280;43090;52.604;13.318;2023-08-30T03:41:08;100223.13;;;14.72;100.00
57234;BME280;43090;52.604;13.318;2023-08-30T03:43:34;100208.66;;;14.63;100.00
57234;BME280;43090;52.604;13.318;2023-08-30T03:46:01;100207.31;;;14.49;100.00
57234;BME280;43090;52.604;13.318;2023-08-30T03:48:29;100205.56;;;14.58;100.00
57234;BME280;43090;52.604;13.318;2023-08-30T03:50:56;100209.81;;;14.60;100.00
57234;BME280;43090;52.604;13.318;2023-08-30T03:53:23;100231.53;;;14.69;100.00
57234;BME280;43090;52.604;13.318;2023-08-30T03:55:50;100215.06;;;14.62;100.00
57234;BME280;43090;52.604;13.318;2023-08-30T03:58:17;100237.00;;;14.77;99.98
57234;BME280;43090;52.604;13.318;2023-08-30T04:00:45;100226.59;;;14.54;100.00
57234;BME280;43090;52.604;13.318;2023-08-30T04:03:13;100224.28;;;14.59;100.00
57234;BME280;43090;52.604;13.318;2023-08-30T04:05:40;100229.69;;;14.49;100.00
57234;BME280;43090;52.604;13.318;2023-08-30T04:08:07;100225.97;;;14.70;100.00
57234;BME280;43090;52.604;13.318;2023-08-30T04:10:39;100222.53;;;14.78;100.00
57234;BME280;43090;52.604;13.318;2023-08-30T04:13:06;100216.59;;;14.74;100.00
57234;BME280;43090;52.604;13.318;2023-08-30T04:15:35;100210.38;;;14.74;100.00
57234;BME280;43090;52.604;13.318;2023-08-30T04:18:03;100214.22;;;14.71;100.00
57234;BME280;43090;52.604;13.318;2023-08-30T04:20:30;100214.47;;;14.78;100.00
57234;BME280;43090;52.604;13.318;2023-08-30T04:22:57;100207.81;;;14.62;100.00
57234;BME280;43090;52.604;13.318;2023-08-30T04:25:24;100217.63;;;14.54;100.00
57234;BME280;43090;52.604;13.318;2023-08-30T04:27:51;100214.28;;;14.42;100.00
57234;BME280;43090;52.604;13.318;2023-08-30T04:30:18;100222.38;;;14.32;100.00
57234;BME280;43090;52.604;13.318;2023-08-30T04:32:44;100230.00;;;14.37;100.00
57234;BME280;43090;52.604;13.318;2023-08-30T04:35:14;100227.41;;;14.55;100.00
57234;BME280;43090;52.604;13.318;2023-08-30T04:37:40;100236.22;;;14.47;100.00
57234;BME280;43090;52.604;13.318;2023-08-30T04:40:09;100242.44;;;14.57;100.00
57234;BME280;43090;52.604;13.318;2023-08-30T04:42:36;100247.97;;;14.65;100.00
57234;BME280;43090;52.604;13.318;2023-08-30T04:45:04;100243.84;;;14.61;100.00
57234;BME280;43090;52.604;13.318;2023-08-30T04:47:31;100242.56;;;14.65;100.00
57234;BME280;43090;52.604;13.318;2023-08-30T04:49:59;100242.13;;;14.60;100.00
57234;BME280;43090;52.604;13.318;2023-08-30T04:52:26;100237.31;;;14.74;100.00
57234;BME280;43090;52.604;13.318;2023-08-30T04:54:52;100236.91;;;14.69;100.00
57234;BME280;43090;52.604;13.318;2023-08-30T04:57:19;100245.69;;;14.71;100.00
57234;BME280;43090;52.604;13.318;2023-08-30T04:59:46;100238.09;;;14.84;100.00
57234;BME280;43090;52.604;13.318;2023-08-30T05:02:12;100227.81;;;14.70;100.00
57234;BME280;43090;52.604;13.318;2023-08-30T05:04:39;100229.56;;;14.89;100.00
57234;BME280;43090;52.604;13.318;2023-08-30T05:07:06;100230.16;;;14.82;100.00
57234;BME280;43090;52.604;13.318;2023-08-30T05:09:32;100239.28;;;14.72;100.00
57234;BME280;43090;52.604;13.318;2023-08-30T05:12:01;100261.94;;;14.79;100.00
57234;BME280;43090;52.604;13.318;2023-08-30T05:14:28;100259.66;;;14.84;100.00
57234;BME280;43090;52.604;13.318;2023-08-30T05:16:54;100254.50;;;14.91;100.00
57234;BME280;43090;52.604;13.318;2023-08-30T05:19:21;100249.50;;;15.06;100.00
57234;BME280;43090;52.604;13.318;2023-08-30T05:21:47;100235.78;;;15.17;100.00
57234;BME280;43090;52.604;13.318;2023-08-30T05:24:17;100253.16;;;15.32;100.00
57234;BME280;43090;52.604;13.318;2023-08-30T05:26:44;100239.28;;;15.27;100.00
57234;BME280;43090;52.604;13.318;2023-08-30T05:29:14;100238.69;;;15.33;100.00
57234;BME280;43090;52.604;13.318;2023-08-30T05:31:41;100243.44;;;15.40;100.00
57234;BME280;43090;52.604;13.318;2023-08-30T05:34:07;100238.84;;;15.50;100.00
57234;BME280;43090;52.604;13.318;2023-08-30T05:36:34;100261.28;;;15.69;100.00
57234;BME280;43090;52.604;13.318;2023-08-30T05:39:01;100252.78;;;15.63;100.00
57234;BME280;43090;52.604;13.318;2023-08-30T05:41:28;100254.09;;;15.59;100.00
57234;BME280;43090;52.604;13.318;2023-08-30T05:43:54;100259.50;;;15.59;100.00
57234;BME280;43090;52.604;13.318;2023-08-30T05:46:21;100249.16;;;15.73;100.00
57234;BME280;43090;52.604;13.318;2023-08-30T05:48:47;100233.66;;;15.75;100.00
57234;BME280;43090;52.604;13.318;2023-08-30T05:51:14;100241.03;;;15.82;100.00
57234;BME280;43090;52.604;13.318;2023-08-30T05:53:40;100237.22;;;15.75;100.00
57234;BME280;43090;52.604;13.318;2023-08-30T05:56:07;100238.00;;;15.86;100.00
57234;BME280;43090;52.604;13.318;2023-08-30T05:58:33;100243.25;;;15.87;100.00
57234;BME280;43090;52.604;13.318;2023-08-30T06:01:01;100240.88;;;15.84;100.00
57234;BME280;43090;52.604;13.318;2023-08-30T06:03:31;100231.13;;;15.91;100.00
57234;BME280;43090;52.604;13.318;2023-08-30T06:05:57;100234.53;;;15.93;100.00
57234;BME280;43090;52.604;13.318;2023-08-30T06:08:24;100229.25;;;15.84;100.00
57234;BME280;43090;52.604;13.318;2023-08-30T06:10:50;100230.84;;;15.94;99.98
57234;BME280;43090;52.604;13.318;2023-08-30T06:13:17;100231.88;;;16.02;100.00
57234;BME280;43090;52.604;13.318;2023-08-30T06:15:44;100224.34;;;16.05;100.00
57234;BME280;43090;52.604;13.318;2023-08-30T06:18:11;100237.09;;;16.21;100.00
57234;BME280;43090;52.604;13.318;2023-08-30T06:20:41;100240.19;;;16.26;100.00
57234;BME280;43090;52.604;13.318;2023-08-30T06:23:37;100201.59;;;15.90;100.00
57234;BME280;43090;52.604;13.318;2023-08-30T06:26:04;100211.50;;;16.07;100.00
57234;BME280;43090;52.604;13.318;2023-08-30T06:28:31;100237.69;;;16.33;99.72
57234;BME280;43090;52.604;13.318;2023-08-30T06:31:00;100201.97;;;15.95;100.00
57234;BME280;43090;52.604;13.318;2023-08-30T06:33:30;100217.59;;;16.09;100.00
57234;BME280;43090;52.604;13.318;2023-08-30T06:35:58;100187.00;;;16.01;100.00
57234;BME280;43090;52.604;13.318;2023-08-30T06:38:25;100196.53;;;16.13;99.45
57234;BME280;43090;52.604;13.318;2023-08-30T06:40:57;100227.66;;;16.25;100.00
57234;BME280;43090;52.604;13.318;2023-08-30T06:43:26;100223.63;;;16.29;100.00
57234;BME280;43090;52.604;13.318;2023-08-30T06:53:15;100204.34;;;15.98;100.00
57234;BME280;43090;52.604;13.318;2023-08-30T06:55:56;100197.22;;;16.15;100.00
57234;BME280;43090;52.604;13.318;2023-08-30T06:58:29;100234.94;;;16.51;99.77
57234;BME280;43090;52.604;13.318;2023-08-30T07:00:59;100206.59;;;16.29;100.00
57234;BME280;43090;52.604;13.318;2023-08-30T07:03:26;100206.22;;;16.50;99.36
57234;BME280;43090;52.604;13.318;2023-08-30T07:05:53;100229.13;;;16.72;98.76
57234;BME280;43090;52.604;13.318;2023-08-30T07:08:20;100226.19;;;16.65;98.15
57234;BME280;43090;52.604;13.318;2023-08-30T07:10:47;100211.50;;;16.68;97.85
57234;BME280;43090;52.604;13.318;2023-08-30T07:13:13;100222.22;;;16.78;98.39
57234;BME280;43090;52.604;13.318;2023-08-30T07:15:41;100222.88;;;16.80;98.10
57234;BME280;43090;52.604;13.318;2023-08-30T07:18:08;100204.94;;;16.71;97.97
57234;BME280;43090;52.604;13.318;2023-08-30T07:20:38;100223.94;;;16.87;97.76
57234;BME280;43090;52.604;13.318;2023-08-30T07:23:04;100226.28;;;16.82;97.33
57234;BME280;43090;52.604;13.318;2023-08-30T07:25:34;100223.75;;;16.80;98.02
57234;BME280;43090;52.604;13.318;2023-08-30T07:28:04;100221.91;;;16.89;97.53
57234;BME280;43090;52.604;13.318;2023-08-30T07:30:30;100220.09;;;16.90;96.82
57234;BME280;43090;52.604;13.318;2023-08-30T07:32:57;100222.59;;;16.83;95.95
57234;BME280;43090;52.604;13.318;2023-08-30T07:35:24;100221.25;;;16.87;96.23
57234;BME280;43090;52.604;13.318;2023-08-30T07:37:50;100222.22;;;16.78;97.51
57234;BME280;43090;52.604;13.318;2023-08-30T07:40:17;100210.34;;;16.71;98.31
57234;BME280;43090;52.604;13.318;2023-08-30T07:42:43;100219.22;;;16.89;97.97
57234;BME280;43090;52.604;13.318;2023-08-30T07:45:10;100221.06;;;16.89;98.22
57234;BME280;43090;52.604;13.318;2023-08-30T07:47:36;100219.97;;;16.99;97.00
57234;BME280;43090;52.604;13.318;2023-08-30T07:50:05;100214.56;;;16.65;99.55
57234;BME280;43090;52.604;13.318;2023-08-30T07:52:32;100216.41;;;16.64;99.29
57234;BME280;43090;52.604;13.318;2023-08-30T07:55:10;100218.75;;;16.59;97.73
57234;BME280;43090;52.604;13.318;2023-08-30T07:57:36;100227.09;;;16.74;95.80
57234;BME280;43090;52.604;13.318;2023-08-30T08:00:03;100217.44;;;16.72;96.48
57234;BME280;43090;52.604;13.318;2023-08-30T08:02:30;100208.16;;;16.74;97.68
57234;BME280;43090;52.604;13.318;2023-08-30T08:04:56;100212.81;;;16.90;98.58
57234;BME280;43090;52.604;13.318;2023-08-30T08:07:23;100213.88;;;16.97;98.07
57234;BME280;43090;52.604;13.318;2023-08-30T08:09:54;100219.69;;;17.19;97.08
57234;BME280;43090;52.604;13.318;2023-08-30T08:12:21;100207.84;;;17.12;97.24
57234;BME280;43090;52.604;13.318;2023-08-30T08:14:48;100190.03;;;17.01;98.25
57234;BME280;43090;52.604;13.318;2023-08-30T08:17:15;100201.63;;;17.28;96.90
57234;BME280;43090;52.604;13.318;2023-08-30T08:19:42;100198.56;;;17.23;94.36
57234;BME280;43090;52.604;13.318;2023-08-30T08:22:10;100200.09;;;17.42;93.55
57234;BME280;43090;52.604;13.318;2023-08-30T08:24:37;100228.38;;;17.64;93.41
57234;BME280;43090;52.604;13.318;2023-08-30T08:27:04;100221.28;;;17.46;94.30
57234;BME280;43090;52.604;13.318;2023-08-30T08:29:32;100221.41;;;17.37;93.19
57234;BME280;43090;52.604;13.318;2023-08-30T08:31:59;100201.94;;;17.33;92.25
57234;BME280;43090;52.604;13.318;2023-08-30T08:34:26;100207.41;;;17.41;93.80
57234;BME280;43090;52.604;13.318;2023-08-30T08:36:53;100231.09;;;17.72;91.67
57234;BME280;43090;52.604;13.318;2023-08-30T08:39:44;100204.09;;;17.13;91.42
57234;BME280;43090;52.604;13.318;2023-08-30T08:42:26;100230.09;;;17.65;90.03
57234;BME280;43090;52.604;13.318;2023-08-30T08:44:54;100211.97;;;17.65;88.52
57234;BME280;43090;52.604;13.318;2023-08-30T08:47:21;100190.97;;;17.59;90.68
57234;BME280;43090;52.604;13.318;2023-08-30T08:49:48;100220.47;;;17.95;90.02
57234;BME280;43090;52.604;13.318;2023-08-30T08:52:18;100220.28;;;18.05;88.49
57234;BME280;43090;52.604;13.318;2023-08-30T08:55:05;100223.84;;;18.14;86.52
57234;BME280;43090;52.604;13.318;2023-08-30T08:57:59;100228.72;;;18.35;83.44
57234;BME280;43090;52.604;13.318;2023-08-30T09:00:26;100215.19;;;18.19;83.02
57234;BME280;43090;52.604;13.318;2023-08-30T09:02:54;100200.13;;;18.16;81.87
57234;BME280;43090;52.604;13.318;2023-08-30T09:05:21;100188.47;;;17.99;83.04
57234;BME280;43090;52.604;13.318;2023-08-30T09:07:49;100182.53;;;17.71;85.81
57234;BME280;43090;52.604;13.318;2023-08-30T09:10:21;100182.69;;;17.77;85.91
57234;BME280;43090;52.604;13.318;2023-08-30T09:12:53;100204.88;;;18.14;83.55
57234;BME280;43090;52.604;13.318;2023-08-30T09:15:20;100223.28;;;18.43;83.01
57234;BME280;43090;52.604;13.318;2023-08-30T09:18:02;100184.06;;;17.81;81.96
57234;BME280;43090;52.604;13.318;2023-08-30T09:24:11;100214.03;;;18.13;81.29
57234;BME280;43090;52.604;13.318;2023-08-30T09:26:38;100207.38;;;18.32;80.51
57234;BME280;43090;52.604;13.318;2023-08-30T09:29:06;100196.34;;;18.34;79.32
57234;BME280;43090;52.604;13.318;2023-08-30T09:34:00;100210.38;;;18.45;79.82
57234;BME280;43090;52.604;13.318;2023-08-30T09:39:11;100195.84;;;18.38;80.30
57234;BME280;43090;52.604;13.318;2023-08-30T09:41:48;100198.38;;;18.40;81.24
57234;BME280;43090;52.604;13.318;2023-08-30T09:44:19;100174.66;;;18.42;82.02
57234;BME280;43090;52.604;13.318;2023-08-30T09:46:54;100168.50;;;17.59;91.53
57234;BME280;43090;52.604;13.318;2023-08-30T09:49:43;100208.00;;;18.51;86.87
57234;BME280;43090;52.604;13.318;2023-08-30T09:52:16;100191.97;;;18.24;79.19
57234;BME280;43090;52.604;13.318;2023-08-30T09:54:45;100174.66;;;18.42;79.72
57234;BME280;43090;52.604;13.318;2023-08-30T09:57:15;100173.22;;;18.06;81.66
57234;BME280;43090;52.604;13.318;2023-08-30T09:59:44;100158.16;;;18.04;84.91
57234;BME280;43090;52.604;13.318;2023-08-30T10:02:21;100169.09;;;18.27;79.05
57234;BME280;43090;52.604;13.318;2023-08-30T10:04:50;100164.19;;;18.30;80.69
57234;BME280;43090;52.604;13.318;2023-08-30T10:07:18;100170.44;;;18.39;79.82
57234;BME280;43090;52.604;13.318;2023-08-30T10:09:47;100150.75;;;18.45;79.86
57234;BME280;43090;52.604;13.318;2023-08-30T10:12:34;100177.78;;;18.22;75.29
57234;BME280;43090;52.604;13.318;2023-08-30T10:15:01;100185.25;;;18.60;76.37
57234;BME280;43090;52.604;13.318;2023-08-30T10:17:31;100145.53;;;18.36;80.01
57234;BME280;43090;52.604;13.318;2023-08-30T10:19:59;100159.94;;;18.36;81.53
57234;BME280;43090;52.604;13.318;2023-08-30T10:22:28;100176.53;;;18.81;79.44
57234;BME280;43090;52.604;13.318;2023-08-30T10:24:58;100167.59;;;18.72;75.77
57234;BME280;43090;52.604;13.318;2023-08-30T10:27:39;100146.38;;;18.84;75.27
57234;BME280;43090;52.604;13.318;2023-08-30T10:30:09;100157.19;;;18.92;74.88
57234;BME280;43090;52.604;13.318;2023-08-30T10:32:41;100162.63;;;18.92;74.21
57234;BME280;43090;52.604;13.318;2023-08-30T10:35:13;100153.13;;;19.20;73.53
57234;BME280;43090;52.604;13.318;2023-08-30T10:37:41;100157.34;;;19.45;74.46
57234;BME280;43090;52.604;13.318;2023-08-30T10:40:08;100162.13;;;19.20;75.53
57234;BME280;43090;52.604;13.318;2023-08-30T10:42:39;100155.59;;;19.29;74.68
57234;BME280;43090;52.604;13.318;2023-08-30T10:45:07;100173.69;;;19.37;72.66
57234;BME280;43090;52.604;13.318;2023-08-30T10:47:37;100162.28;;;19.42;72.28
57234;BME280;43090;52.604;13.318;2023-08-30T10:50:07;100149.16;;;19.30;70.21
57234;BME280;43090;52.604;13.318;2023-08-30T10:52:34;100169.72;;;19.48;71.54
57234;BME280;43090;52.604;13.318;2023-08-30T10:55:13;100187.50;;;19.51;70.14
57234;BME280;43090;52.604;13.318;2023-08-30T10:57:44;100179.72;;;19.01;72.13
57234;BME280;43090;52.604;13.318;2023-08-30T11:00:18;100183.66;;;19.45;74.44
57234;BME280;43090;52.604;13.318;2023-08-30T11:02:56;100184.22;;;18.69;75.92
57234;BME280;43090;52.604;13.318;2023-08-30T11:05:26;100168.19;;;18.51;84.73
57234;BME280;43090;52.604;13.318;2023-08-30T11:08:29;100192.53;;;19.39;78.75
57234;BME280;43090;52.604;13.318;2023-08-30T11:11:03;100196.56;;;19.43;73.88
57234;BME280;43090;52.604;13.318;2023-08-30T11:13:31;100165.91;;;19.57;73.06
57234;BME280;43090;52.604;13.318;2023-08-30T11:16:01;100186.06;;;19.86;70.25
57234;BME280;43090;52.604;13.318;2023-08-30T11:18:27;100162.41;;;19.48;65.28
57234;BME280;43090;52.604;13.318;2023-08-30T11:21:00;100190.06;;;19.29;68.25
57234;BME280;43090;52.604;13.318;2023-08-30T11:23:28;100183.56;;;19.30;73.35
57234;BME280;43090;52.604;13.318;2023-08-30T11:25:56;100169.91;;;19.46;67.75
57234;BME280;43090;52.604;13.318;2023-08-30T11:28:25;100155.31;;;19.86;68.63
57234;BME280;43090;52.604;13.318;2023-08-30T11:30:55;100155.56;;;19.76;70.49
57234;BME280;43090;52.604;13.318;2023-08-30T11:33:22;100162.59;;;20.08;67.72
57234;BME280;43090;52.604;13.318;2023-08-30T11:35:52;100162.66;;;19.85;66.98
57234;BME280;43090;52.604;13.318;2023-08-30T11:38:21;100149.34;;;19.90;66.64
57234;BME280;43090;52.604;13.318;2023-08-30T11:40:48;100158.72;;;19.64;67.43
57234;BME280;43090;52.604;13.318;2023-08-30T11:43:15;100149.63;;;19.57;64.36
57234;BME280;43090;52.604;13.318;2023-08-30T11:45:45;100156.09;;;19.33;68.65
57234;BME280;43090;52.604;13.318;2023-08-30T11:48:12;100164.81;;;19.67;66.47
57234;BME280;43090;52.604;13.318;2023-08-30T11:50:39;100171.03;;;19.52;65.41
57234;BME280;43090;52.604;13.318;2023-08-30T11:53:14;100148.06;;;19.40;64.91
57234;BME280;43090;52.604;13.318;2023-08-30T11:55:44;100166.81;;;19.50;64.09
57234;BME280;43090;52.604;13.318;2023-08-30T11:58:11;100139.03;;;19.86;62.71
57234;BME280;43090;52.604;13.318;2023-08-30T12:00:38;100171.16;;;19.82;65.31
57234;BME280;43090;52.604;13.318;2023-08-30T12:03:07;100180.56;;;19.94;61.05
57234;BME280;43090;52.604;13.318;2023-08-30T12:05:37;100150.19;;;19.91;60.95
57234;BME280;43090;52.604;13.318;2023-08-30T12:08:21;100162.50;;;20.31;61.96
57234;BME280;43090;52.604;13.318;2023-08-30T12:10:49;100160.81;;;20.16;63.52
57234;BME280;43090;52.604;13.318;2023-08-30T12:13:24;100166.34;;;20.37;61.50
57234;BME280;43090;52.604;13.318;2023-08-30T12:15:55;100141.88;;;20.22;65.97
57234;BME280;43090;52.604;13.318;2023-08-30T12:18:26;100140.53;;;19.88;63.38
57234;BME280;43090;52.604;13.318;2023-08-30T12:21:00;100153.69;;;20.00;65.36
57234;BME280;43090;52.604;13.318;2023-08-30T12:23:29;100168.03;;;20.08;61.51
57234;BME280;43090;52.604;13.318;2023-08-30T12:26:05;100169.78;;;20.01;63.92
57234;BME280;43090;52.604;13.318;2023-08-30T12:28:34;100154.44;;;19.70;63.39
57234;BME280;43090;52.604;13.318;2023-08-30T12:31:01;100164.81;;;19.90;65.06
57234;BME280;43090;52.604;13.318;2023-08-30T12:33:30;100138.34;;;19.69;64.42
57234;BME280;43090;52.604;13.318;2023-08-30T12:35:57;100143.59;;;19.47;69.09
57234;BME280;43090;52.604;13.318;2023-08-30T12:38:24;100151.63;;;19.78;65.64
57234;BME280;43090;52.604;13.318;2023-08-30T12:40:53;100137.75;;;19.73;64.59
57234;BME280;43090;52.604;13.318;2023-08-30T12:43:20;100158.72;;;19.64;63.97
57234;BME280;43090;52.604;13.318;2023-08-30T12:45:48;100150.56;;;19.64;64.68
57234;BME280;43090;52.604;13.318;2023-08-30T12:48:17;100144.19;;;19.57;65.43
57234;BME280;43090;52.604;13.318;2023-08-30T12:50:45;100133.41;;;19.49;68.97
57234;BME280;43090;52.604;13.318;2023-08-30T12:56:57;100120.66;;;19.03;65.80
57234;BME280;43090;52.604;13.318;2023-08-30T12:59:24;100149.19;;;19.22;71.81
57234;BME280;43090;52.604;13.318;2023-08-30T13:05:10;100136.06;;;19.11;78.04
57234;BME280;43090;52.604;13.318;2023-08-30T13:07:37;100130.94;;;19.16;75.33
57234;BME280;43090;52.604;13.318;2023-08-30T13:10:04;100142.13;;;19.13;78.57
57234;BME280;43090;52.604;13.318;2023-08-30T13:12:31;100144.63;;;19.23;70.10
57234;BME280;43090;52.604;13.318;2023-08-30T13:14:57;100141.38;;;19.51;70.89
57234;BME280;43090;52.604;13.318;2023-08-30T13:17:24;100133.66;;;19.77;69.19
57234;BME280;43090;52.604;13.318;2023-08-30T13:19:51;100127.00;;;19.80;68.32
57234;BME280;43090;52.604;13.318;2023-08-30T13:22:17;100106.06;;;20.19;68.49
57234;BME280;43090;52.604;13.318;2023-08-30T13:24:44;100130.06;;;20.45;65.49